createdAt,value
2023-05-18T00:02:24.386Z,8.81
2023-05-18T00:04:52.200Z,8.82
2023-05-18T00:07:20.243Z,8.82
2023-05-18T00:09:48.123Z,8.81
2023-05-18T00:13:15.366Z,8.79
2023-05-18T00:16:24.159Z,8.75
2023-05-18T00:19:32.076Z,8.74
2023-05-18T00:22:50.648Z,8.70
2023-05-18T00:25:58.285Z,8.69
2023-05-18T00:29:06.205Z,8.66
2023-05-18T00:32:43.742Z,8.63
2023-05-18T00:36:15.129Z,8.62
2023-05-18T00:39:44.103Z,8.60
2023-05-18T00:43:31.437Z,8.53
2023-05-18T00:47:18.702Z,8.47
2023-05-18T00:50:48.079Z,8.44
2023-05-18T00:54:15.820Z,8.46
2023-05-18T00:58:06.151Z,8.46
2023-05-18T01:01:53.358Z,8.40
2023-05-18T01:05:50.124Z,8.33
2023-05-18T01:09:30.713Z,8.30
2023-05-18T01:13:31.849Z,8.28
2023-05-18T01:17:19.390Z,8.26
2023-05-18T01:21:08.173Z,8.23
2023-05-18T01:25:07.722Z,8.25
2023-05-18T01:28:55.227Z,8.23
2023-05-18T01:32:34.770Z,8.19
2023-05-18T01:36:21.956Z,8.18
2023-05-18T01:40:10.847Z,8.09
2023-05-18T01:43:58.186Z,8.05
2023-05-18T01:47:51.036Z,8.00
2023-05-18T01:51:38.089Z,7.91
2023-05-18T01:55:25.418Z,7.86
2023-05-18T01:59:14.436Z,7.83
2023-05-18T02:03:01.885Z,7.80
2023-05-18T02:06:48.835Z,7.81
2023-05-18T02:10:17.785Z,7.79
2023-05-18T02:13:48.193Z,7.75
2023-05-18T02:17:15.295Z,7.70
2023-05-18T02:21:03.110Z,7.69
2023-05-18T02:24:20.949Z,7.67
2023-05-18T02:27:53.299Z,7.65
2023-05-18T02:31:23.894Z,7.66
2023-05-18T02:34:36.021Z,7.63
2023-05-18T02:38:13.544Z,7.61
2023-05-18T02:41:48.104Z,7.56
2023-05-18T02:45:35.405Z,7.52
2023-05-18T02:49:22.357Z,7.52
2023-05-18T02:52:51.855Z,7.50
2023-05-18T02:56:38.899Z,7.49
2023-05-18T03:00:09.527Z,7.49
2023-05-18T03:03:56.563Z,7.45
2023-05-18T03:07:43.559Z,7.42
2023-05-18T03:11:13.419Z,7.38
2023-05-18T03:14:34.397Z,7.38
2023-05-18T03:18:18.057Z,7.36
2023-05-18T03:21:46.787Z,7.34
2023-05-18T03:25:16.381Z,7.35
2023-05-18T03:29:03.261Z,7.35
2023-05-18T03:32:30.287Z,7.34
2023-05-18T03:35:47.772Z,7.31
2023-05-18T03:39:25.167Z,7.33
2023-05-18T03:43:12.187Z,7.36
2023-05-18T03:46:39.708Z,7.39
2023-05-18T03:50:26.577Z,7.38
2023-05-18T03:54:13.660Z,7.37
2023-05-18T04:01:52.766Z,7.38
2023-05-18T04:05:19.895Z,7.36
2023-05-18T04:08:42.166Z,7.38
2023-05-18T04:12:18.507Z,7.41
2023-05-18T04:15:31.605Z,7.46
2023-05-18T04:18:45.065Z,7.50
2023-05-18T04:21:38.014Z,7.52
2023-05-18T04:25:05.259Z,7.53
2023-05-18T04:28:35.330Z,7.53
2023-05-18T04:31:26.348Z,7.54
2023-05-18T04:34:57.858Z,7.55
2023-05-18T04:38:25.590Z,7.57
2023-05-18T04:42:12.550Z,7.57
2023-05-18T04:45:55.193Z,7.59
2023-05-18T04:49:45.156Z,7.61
2023-05-18T04:53:22.115Z,7.60
2023-05-18T04:56:14.593Z,7.60
2023-05-18T04:59:15.683Z,7.62
2023-05-18T05:02:44.146Z,7.61
2023-05-18T05:05:51.245Z,7.63
2023-05-18T05:08:19.062Z,7.62
2023-05-18T05:11:12.185Z,7.62
2023-05-18T05:13:46.765Z,7.63
2023-05-18T05:16:48.815Z,7.62
2023-05-18T05:19:45.066Z,7.62
2023-05-18T05:23:12.231Z,7.64
2023-05-18T05:26:31.664Z,7.66
2023-05-18T05:30:03.865Z,7.64
2023-05-18T05:33:51.700Z,7.64
2023-05-18T05:37:39.583Z,7.64
2023-05-18T05:41:34.531Z,7.66
2023-05-18T05:45:24.414Z,7.73
2023-05-18T05:49:19.154Z,7.83
2023-05-18T05:53:08.866Z,7.88
2023-05-18T05:56:40.339Z,7.91
2023-05-18T06:00:34.522Z,7.86
2023-05-18T06:04:31.425Z,7.87
2023-05-18T06:08:20.725Z,7.97
2023-05-18T06:12:14.475Z,8.06
2023-05-18T06:16:02.586Z,8.11
2023-05-18T06:19:57.077Z,8.16
2023-05-18T06:23:51.969Z,8.19
2023-05-18T06:27:40.730Z,8.27
2023-05-18T06:31:15.022Z,8.38
2023-05-18T06:38:47.250Z,8.45
2023-05-18T06:42:37.452Z,8.44
2023-05-18T06:46:26.858Z,8.40
2023-05-18T06:50:18.594Z,8.42
2023-05-18T06:58:11.027Z,8.52
2023-05-18T07:02:05.433Z,8.58
2023-05-18T07:05:55.312Z,8.56
2023-05-18T07:13:29.293Z,8.62
2023-05-18T07:17:25.009Z,8.65
2023-05-18T07:20:57.460Z,8.68
2023-05-18T07:24:45.429Z,8.69
2023-05-18T07:28:32.561Z,8.77
2023-05-18T07:32:22.463Z,8.72
2023-05-18T07:36:10.328Z,8.75
2023-05-18T07:39:57.550Z,8.75
2023-05-18T07:43:48.164Z,8.76
2023-05-18T07:47:36.113Z,8.75
2023-05-18T07:51:24.988Z,8.78
2023-05-18T08:01:30.779Z,8.54
2023-05-18T08:03:58.086Z,8.59
2023-05-18T08:06:25.424Z,8.62
2023-05-18T08:08:53.288Z,8.66
2023-05-18T08:11:20.658Z,8.67
2023-05-18T08:13:48.023Z,8.73
2023-05-18T08:16:15.917Z,8.82
2023-05-18T08:18:43.241Z,8.88
2023-05-18T08:21:11.188Z,8.92
2023-05-18T08:23:39.157Z,9.01
2023-05-18T08:26:06.620Z,9.04
2023-05-18T08:28:33.970Z,9.05
2023-05-18T08:31:01.692Z,9.14
2023-05-18T08:33:29.145Z,9.21
2023-05-18T08:35:57.196Z,9.27
2023-05-18T08:38:24.613Z,9.26
2023-05-18T08:41:24.288Z,9.29
2023-05-18T08:43:59.871Z,9.36
2023-05-18T08:46:34.405Z,9.42
2023-05-18T08:49:03.986Z,9.45
2023-05-18T08:51:35.300Z,9.48
2023-05-18T08:54:04.604Z,9.55
2023-05-18T08:56:36.623Z,9.57
2023-05-18T08:59:08.428Z,9.57
2023-05-18T09:01:36.554Z,9.55
2023-05-18T09:04:04.865Z,9.51
2023-05-18T09:06:33.137Z,9.54
2023-05-18T09:09:04.912Z,9.59
2023-05-18T09:11:34.095Z,9.64
2023-05-18T09:14:02.115Z,9.71
2023-05-18T09:16:30.724Z,9.75
2023-05-18T09:18:58.417Z,9.79
2023-05-18T09:21:26.725Z,9.82
2023-05-18T09:23:54.539Z,9.79
2023-05-18T09:26:23.140Z,9.82
2023-05-18T09:28:54.290Z,9.87
2023-05-18T09:31:25.112Z,9.89
2023-05-18T09:33:52.927Z,9.89
2023-05-18T09:36:26.392Z,9.90
2023-05-18T09:38:54.087Z,9.97
2023-05-18T09:41:22.391Z,9.99
2023-05-18T09:43:51.510Z,10.02
2023-05-18T09:46:21.410Z,10.08
2023-05-18T09:48:53.855Z,10.13
2023-05-18T09:51:25.812Z,10.09
2023-05-18T09:53:59.181Z,10.10
2023-05-18T09:56:27.930Z,10.08
2023-05-18T09:58:56.185Z,10.11
2023-05-18T10:01:24.755Z,10.16
2023-05-18T10:03:53.847Z,10.21
2023-05-18T10:06:27.794Z,10.25
2023-05-18T10:08:58.740Z,10.30
2023-05-18T10:11:28.099Z,10.34
2023-05-18T10:13:59.020Z,10.28
2023-05-18T10:16:26.776Z,10.24
2023-05-18T10:18:56.171Z,10.26
2023-05-18T10:21:27.356Z,10.27
2023-05-18T10:23:56.338Z,10.28
2023-05-18T10:26:28.175Z,10.27
2023-05-18T10:28:58.398Z,10.25
2023-05-18T10:31:28.619Z,10.27
2023-05-18T10:33:56.723Z,10.28
2023-05-18T10:36:26.345Z,10.31
2023-05-18T10:38:54.798Z,10.34
2023-05-18T10:41:25.276Z,10.30
2023-05-18T10:43:55.279Z,10.21
2023-05-18T10:46:27.196Z,10.14
2023-05-18T10:48:56.539Z,10.13
2023-05-18T10:51:26.995Z,10.06
2023-05-18T10:54:02.316Z,10.06
2023-05-18T10:56:30.042Z,10.04
2023-05-18T10:58:57.994Z,10.07
2023-05-18T11:01:25.461Z,10.10
2023-05-18T11:03:53.460Z,10.12
2023-05-18T11:06:24.934Z,10.18
2023-05-18T11:08:52.626Z,10.24
2023-05-18T11:11:26.816Z,10.28
2023-05-18T11:13:54.652Z,10.25
2023-05-18T11:16:32.841Z,10.23
2023-05-18T11:19:07.701Z,10.23
2023-05-18T11:21:41.688Z,10.19
2023-05-18T11:24:32.957Z,10.13
2023-05-18T11:27:03.993Z,10.09
2023-05-18T11:29:37.085Z,10.11
2023-05-18T11:32:05.209Z,10.10
2023-05-18T11:34:45.536Z,10.03
2023-05-18T11:37:18.101Z,9.97
2023-05-18T11:40:00.161Z,9.91
2023-05-18T11:42:35.255Z,9.84
2023-05-18T11:45:11.000Z,9.79
2023-05-18T11:47:42.647Z,9.71
2023-05-18T11:50:15.081Z,9.67
2023-05-18T11:52:53.825Z,9.63
2023-05-18T11:55:21.778Z,9.60
2023-05-18T11:57:53.099Z,9.57
2023-05-18T12:00:21.568Z,9.54
2023-05-18T12:02:50.520Z,9.54
2023-05-18T12:05:19.005Z,9.55
2023-05-18T12:07:54.175Z,9.55
2023-05-18T12:10:22.803Z,9.59
2023-05-18T12:12:53.218Z,9.60
2023-05-18T12:15:25.334Z,9.62
2023-05-18T12:17:52.850Z,9.65
2023-05-18T12:20:28.890Z,9.67
2023-05-18T12:22:57.732Z,9.71
2023-05-18T12:25:28.469Z,9.72
2023-05-18T12:27:57.335Z,9.69
2023-05-18T12:30:36.191Z,9.70
2023-05-18T12:33:05.130Z,9.69
2023-05-18T12:35:33.929Z,9.68
2023-05-18T12:38:02.168Z,9.66
2023-05-18T12:40:47.143Z,9.61
2023-05-18T12:43:14.956Z,9.58
2023-05-18T12:45:45.562Z,9.53
2023-05-18T12:48:15.534Z,9.51
2023-05-18T12:50:51.918Z,9.49
2023-05-18T12:53:19.945Z,9.46
2023-05-18T12:55:58.676Z,9.34
2023-05-18T12:58:26.449Z,9.29
2023-05-18T13:00:55.413Z,9.24
2023-05-18T13:03:24.925Z,9.24
2023-05-18T13:06:07.029Z,9.18
2023-05-18T13:08:36.788Z,9.06
2023-05-18T13:11:13.551Z,8.99
2023-05-18T13:14:03.854Z,8.92
2023-05-18T13:16:32.332Z,8.88
2023-05-18T13:19:01.740Z,8.88
2023-05-18T13:21:29.795Z,8.93
2023-05-18T13:23:57.270Z,8.97
2023-05-18T13:26:25.815Z,9.00
2023-05-18T13:28:56.556Z,9.00
2023-05-18T13:31:24.151Z,9.01
2023-05-18T13:33:51.812Z,9.05
2023-05-18T13:36:19.784Z,9.06
2023-05-18T13:38:47.323Z,9.07
2023-05-18T13:41:17.969Z,9.11
2023-05-18T13:43:45.605Z,9.11
2023-05-18T13:46:14.026Z,9.10
2023-05-18T13:48:41.561Z,9.13
2023-05-18T13:51:08.885Z,9.15
2023-05-18T13:53:38.716Z,9.17
2023-05-18T13:56:07.609Z,9.17
2023-05-18T13:58:36.460Z,9.13
2023-05-18T14:01:08.725Z,9.08
2023-05-18T14:03:37.079Z,9.09
2023-05-18T14:06:05.011Z,9.11
2023-05-18T14:08:32.327Z,9.17
2023-05-18T14:10:59.916Z,9.18
2023-05-18T14:13:27.277Z,9.20
2023-05-18T14:15:54.681Z,9.18
2023-05-18T14:18:22.020Z,9.18
2023-05-18T14:20:49.657Z,9.11
2023-05-18T14:23:16.944Z,8.97
2023-05-18T14:25:46.357Z,8.92
2023-05-18T14:28:13.988Z,8.94
2023-05-18T14:30:41.512Z,8.91
2023-05-18T14:33:09.049Z,8.84
2023-05-18T14:35:36.602Z,8.77
2023-05-18T14:38:04.003Z,8.74
2023-05-18T14:40:31.455Z,8.72
2023-05-18T14:42:59.115Z,8.71
2023-05-18T14:45:26.387Z,8.74
2023-05-18T14:47:53.883Z,8.75
2023-05-18T14:50:21.533Z,8.74
2023-05-18T14:52:48.739Z,8.73
2023-05-18T14:55:16.151Z,8.69
2023-05-18T14:57:43.930Z,8.66
2023-05-18T15:00:12.272Z,8.63
2023-05-18T15:02:39.650Z,8.63
2023-05-18T15:05:07.464Z,8.64
2023-05-18T15:07:34.963Z,8.63
2023-05-18T15:10:02.356Z,8.61
2023-05-18T15:12:29.934Z,8.62
2023-05-18T15:14:58.596Z,8.64
2023-05-18T15:17:25.811Z,8.67
2023-05-18T15:19:53.121Z,8.70
2023-05-18T15:22:20.350Z,8.77
2023-05-18T15:24:47.753Z,8.81
2023-05-18T15:27:15.368Z,8.81
2023-05-18T15:29:42.594Z,8.80
2023-05-18T15:32:10.909Z,8.81
2023-05-18T15:34:38.904Z,8.85
2023-05-18T15:37:06.380Z,8.83
2023-05-18T15:39:34.504Z,8.86
2023-05-18T15:42:02.189Z,8.83
2023-05-18T15:44:29.795Z,8.83
2023-05-18T15:46:57.937Z,8.86
2023-05-18T15:49:29.153Z,8.87
2023-05-18T15:51:56.905Z,8.89
2023-05-18T15:54:24.282Z,8.89
2023-05-18T15:56:52.172Z,8.86
2023-05-18T15:59:19.433Z,8.86
2023-05-18T16:01:46.945Z,8.89
2023-05-18T16:04:14.589Z,8.90
2023-05-18T16:06:42.083Z,8.94
2023-05-18T16:09:09.371Z,8.86
2023-05-18T16:11:36.947Z,8.88
2023-05-18T16:14:05.504Z,8.94
2023-05-18T16:16:33.121Z,8.98
2023-05-18T16:19:04.541Z,9.02
2023-05-18T16:21:32.538Z,9.02
2023-05-18T16:23:59.994Z,9.06
2023-05-18T16:26:27.624Z,9.11
2023-05-18T16:28:55.618Z,9.14
2023-05-18T16:31:23.002Z,9.17
2023-05-18T16:33:50.508Z,9.19
2023-05-18T16:36:18.295Z,9.20
2023-05-18T16:38:45.543Z,9.23
2023-05-18T16:41:15.274Z,9.25
2023-05-18T16:43:43.913Z,9.23
2023-05-18T16:46:11.949Z,9.20
2023-05-18T16:48:39.743Z,9.17
2023-05-18T16:51:07.368Z,9.16
2023-05-18T16:53:35.207Z,9.13
2023-05-18T16:56:05.337Z,9.08
2023-05-18T16:58:32.655Z,9.05
2023-05-18T17:01:00.110Z,8.96
2023-05-18T17:03:28.122Z,8.90
2023-05-18T17:05:55.569Z,8.88
2023-05-18T17:08:23.775Z,8.88
2023-05-18T17:10:51.106Z,8.89
2023-05-18T17:13:18.423Z,8.88
2023-05-18T17:15:45.925Z,8.86
2023-05-18T17:18:13.332Z,8.84
2023-05-18T17:20:41.151Z,8.80
2023-05-18T17:23:08.447Z,8.73
2023-05-18T17:25:35.824Z,8.70
2023-05-18T17:28:03.232Z,8.70
2023-05-18T17:30:30.785Z,8.69
2023-05-18T17:32:58.576Z,8.66
2023-05-18T17:35:25.952Z,8.66
2023-05-18T17:37:54.932Z,8.67
2023-05-18T17:40:22.471Z,8.65
2023-05-18T17:42:49.849Z,8.62
2023-05-18T17:45:18.546Z,8.58
2023-05-18T17:47:46.662Z,8.54
2023-05-18T17:50:13.955Z,8.56
2023-05-18T17:52:41.428Z,8.60
2023-05-18T17:55:10.242Z,8.60
2023-05-18T17:57:38.986Z,8.55
2023-05-18T18:00:08.255Z,8.57
2023-05-18T18:02:35.653Z,8.50
2023-05-18T18:05:02.994Z,8.36
2023-05-18T18:07:30.221Z,8.29
2023-05-18T18:09:58.046Z,8.26
2023-05-18T18:12:25.356Z,8.27
2023-05-18T18:14:53.590Z,8.33
2023-05-18T18:17:21.334Z,8.37
2023-05-18T18:19:48.821Z,8.41
2023-05-18T18:22:16.109Z,8.44
2023-05-18T18:24:43.465Z,8.48
2023-05-18T18:27:10.856Z,8.52
2023-05-18T18:29:38.032Z,8.54
2023-05-18T18:32:05.971Z,8.56
2023-05-18T18:34:33.446Z,8.55
2023-05-18T18:37:03.272Z,8.52
2023-05-18T18:39:31.487Z,8.50
2023-05-18T18:41:58.861Z,8.51
2023-05-18T18:44:26.868Z,8.46
2023-05-18T18:46:54.734Z,8.38
2023-05-18T18:49:22.539Z,8.39
2023-05-18T18:51:51.287Z,8.37
2023-05-18T18:54:20.037Z,8.27
2023-05-18T18:56:47.539Z,8.24
2023-05-18T18:59:14.747Z,8.20
2023-05-18T19:01:42.634Z,8.20
2023-05-18T19:04:10.641Z,8.19
2023-05-18T19:06:38.363Z,8.24
2023-05-18T19:09:06.622Z,8.25
2023-05-18T19:11:33.964Z,8.25
2023-05-18T19:14:01.449Z,8.30
2023-05-18T19:16:29.587Z,8.33
2023-05-18T19:18:58.696Z,8.36
2023-05-18T19:21:27.047Z,8.39
2023-05-18T19:23:54.819Z,8.35
2023-05-18T19:26:23.423Z,8.30
2023-05-18T19:28:51.221Z,8.27
2023-05-18T19:31:18.754Z,8.25
2023-05-18T19:33:46.199Z,8.21
2023-05-18T19:36:14.345Z,8.10
2023-05-18T19:38:41.655Z,8.03
2023-05-18T19:41:09.718Z,8.00
2023-05-18T19:43:37.038Z,7.99
2023-05-18T19:46:05.608Z,7.98
2023-05-18T19:48:32.885Z,7.99
2023-05-18T19:51:00.175Z,8.02
2023-05-18T19:53:27.500Z,8.01
2023-05-18T19:55:55.436Z,7.99
2023-05-18T19:58:24.521Z,8.00
2023-05-18T20:00:57.870Z,8.01
2023-05-18T20:03:27.127Z,8.04
2023-05-18T20:05:56.594Z,8.04
2023-05-18T20:08:23.876Z,8.04
2023-05-18T20:10:51.464Z,8.03
2023-05-18T20:13:18.758Z,8.04
2023-05-18T20:15:47.426Z,8.02
2023-05-18T20:18:14.940Z,8.02
2023-05-18T20:20:42.596Z,8.00
2023-05-18T20:23:11.623Z,8.00
2023-05-18T20:25:39.082Z,8.01
2023-05-18T20:28:09.751Z,7.98
2023-05-18T20:30:37.099Z,7.92
2023-05-18T20:33:05.143Z,7.85
2023-05-18T20:35:33.986Z,7.81
2023-05-18T20:38:04.895Z,7.84
